createdAt,value
2023-03-13T00:02:15.310Z,0.38
2023-03-13T00:05:04.125Z,0.35
2023-03-13T00:10:36.940Z,0.25
2023-03-13T00:13:08.136Z,0.15
2023-03-13T00:18:40.170Z,0.29
2023-03-13T00:21:11.271Z,0.37
2023-03-13T00:26:35.858Z,0.22
2023-03-13T00:29:06.653Z,0.18
2023-03-13T00:31:39.802Z,0.23
2023-03-13T00:34:13.892Z,0.23
2023-03-13T00:36:49.695Z,0.18
2023-03-13T00:39:20.638Z,0.28
2023-03-13T00:41:49.786Z,0.28
2023-03-13T00:44:19.761Z,0.31
2023-03-13T00:46:52.225Z,0.37
2023-03-13T00:49:21.248Z,0.36
2023-03-13T00:52:03.295Z,0.24
2023-03-13T00:54:45.988Z,0.13
2023-03-13T00:57:30.673Z,0.11
2023-03-13T01:06:53.417Z,0.05
2023-03-13T01:09:26.552Z,-0.03
2023-03-13T01:25:41.399Z,0.00
2023-03-13T01:34:41.360Z,-0.13
2023-03-13T01:43:57.340Z,-0.15
2023-03-13T01:49:51.490Z,-0.25
2023-03-13T01:52:12.971Z,-0.22
2023-03-13T01:54:52.551Z,-0.19
2023-03-13T01:57:24.649Z,-0.18
2023-03-13T02:00:01.348Z,-0.20
2023-03-13T02:06:09.506Z,-0.30
2023-03-13T02:08:43.475Z,-0.34
2023-03-13T02:11:28.334Z,-0.18
2023-03-13T02:17:48.136Z,-0.07
2023-03-13T02:20:24.833Z,-0.32
2023-03-13T02:23:16.392Z,-0.39
2023-03-13T02:25:53.869Z,-0.38
2023-03-13T02:28:27.188Z,-0.48
2023-03-13T02:31:01.269Z,-0.56
2023-03-13T02:33:36.165Z,-0.65
2023-03-13T02:36:09.116Z,-0.58
2023-03-13T02:38:49.047Z,-0.69
2023-03-13T02:41:20.901Z,-0.72
2023-03-13T02:43:51.472Z,-0.86
2023-03-13T02:46:21.977Z,-0.83
2023-03-13T02:48:54.158Z,-0.84
2023-03-13T02:51:34.996Z,-0.91
2023-03-13T02:54:11.074Z,-0.96
2023-03-13T02:56:43.468Z,-0.94
2023-03-13T02:59:12.505Z,-1.03
2023-03-13T03:01:41.466Z,-1.22
2023-03-13T03:04:12.142Z,-1.39
2023-03-13T03:06:41.010Z,-1.32
2023-03-13T03:09:19.621Z,-1.43
2023-03-13T03:11:48.646Z,-1.40
2023-03-13T03:14:21.720Z,-1.41
2023-03-13T03:17:04.195Z,-1.42
2023-03-13T03:23:17.137Z,-1.50
2023-03-13T03:26:08.157Z,-1.51
2023-03-13T03:28:41.196Z,-1.53
2023-03-13T03:31:21.384Z,-1.51
2023-03-13T03:33:52.803Z,-1.63
2023-03-13T03:36:29.632Z,-1.63
2023-03-13T03:39:04.036Z,-1.71
2023-03-13T03:41:39.397Z,-1.56
2023-03-13T03:44:22.485Z,-1.58
2023-03-13T03:46:59.848Z,-1.57
2023-03-13T03:49:28.991Z,-1.67
2023-03-13T03:52:03.742Z,-1.66
2023-03-13T03:54:32.722Z,-1.60
2023-03-13T03:57:03.082Z,-1.53
2023-03-13T03:59:47.407Z,-1.58
2023-03-13T04:02:17.801Z,-1.61
2023-03-13T04:04:54.361Z,-1.55
2023-03-13T04:07:28.396Z,-1.62
2023-03-13T04:10:04.206Z,-1.78
2023-03-13T04:12:37.587Z,-1.78
2023-03-13T04:18:25.643Z,-1.78
2023-03-13T04:21:09.785Z,-1.75
2023-03-13T04:23:49.629Z,-1.69
2023-03-13T04:30:45.892Z,-1.76
2023-03-13T04:33:28.888Z,-1.89
2023-03-13T04:36:26.243Z,-1.95
2023-03-13T04:38:36.974Z,-2.02
2023-03-13T04:41:10.972Z,-1.93
2023-03-13T04:43:40.045Z,-1.93
2023-03-13T04:49:47.279Z,-2.01
2023-03-13T04:52:19.042Z,-2.02
2023-03-13T04:54:48.136Z,-1.87
2023-03-13T04:57:19.064Z,-1.84
2023-03-13T04:59:51.821Z,-1.92
2023-03-13T05:02:23.947Z,-1.88
2023-03-13T05:05:02.753Z,-1.84
2023-03-13T05:07:34.497Z,-1.77
2023-03-13T05:10:03.513Z,-1.84
2023-03-13T05:12:32.596Z,-1.66
2023-03-13T05:15:03.464Z,-1.47
2023-03-13T05:17:44.789Z,-1.41
2023-03-13T05:20:21.344Z,-1.32
2023-03-13T05:22:53.321Z,-1.35
2023-03-13T05:25:23.628Z,-1.21
2023-03-13T05:28:00.497Z,-1.11
2023-03-13T05:30:29.396Z,-0.97
2023-03-13T05:32:59.772Z,-1.01
2023-03-13T05:35:36.007Z,-0.84
2023-03-13T05:38:08.426Z,-0.67
2023-03-13T05:40:48.515Z,-0.69
2023-03-13T05:43:19.208Z,-0.71
2023-03-13T05:52:28.634Z,-0.50
2023-03-13T05:54:57.888Z,-0.36
2023-03-13T05:57:29.774Z,-0.48
2023-03-13T06:00:01.942Z,-0.20
2023-03-13T06:02:30.756Z,-0.01
2023-03-13T06:05:01.361Z,0.01
2023-03-13T06:07:30.399Z,0.02
2023-03-13T06:10:05.171Z,0.02
2023-03-13T06:12:33.163Z,0.22
2023-03-13T06:15:02.006Z,0.17
2023-03-13T06:17:32.457Z,0.13
2023-03-13T06:20:01.305Z,0.22
2023-03-13T06:22:31.131Z,0.29
2023-03-13T06:25:02.398Z,0.31
2023-03-13T06:27:31.297Z,0.65
2023-03-13T06:30:00.128Z,0.80
2023-03-13T06:32:29.931Z,0.71
2023-03-13T06:34:59.165Z,0.88
2023-03-13T06:37:27.787Z,1.01
2023-03-13T06:39:56.608Z,1.00
2023-03-13T06:42:28.367Z,1.07
2023-03-13T06:44:57.202Z,1.21
2023-03-13T06:47:25.812Z,1.10
2023-03-13T06:49:54.363Z,1.34
2023-03-13T06:52:31.433Z,1.56
2023-03-13T06:54:53.592Z,1.28
2023-03-13T06:57:22.386Z,1.20
2023-03-13T06:59:51.181Z,1.22
2023-03-13T07:02:19.764Z,1.57
2023-03-13T07:04:48.446Z,1.73
2023-03-13T07:07:31.001Z,1.98
2023-03-13T07:09:47.436Z,2.13
2023-03-13T07:12:17.765Z,2.17
2023-03-13T07:14:46.432Z,2.09
2023-03-13T07:17:15.196Z,1.70
2023-03-13T07:19:43.985Z,1.72
2023-03-13T07:22:12.713Z,1.86
2023-03-13T07:24:44.433Z,1.78
2023-03-13T07:27:17.922Z,1.95
2023-03-13T07:29:52.961Z,1.95
2023-03-13T07:32:32.718Z,2.26
2023-03-13T07:35:04.917Z,2.38
2023-03-13T07:37:39.194Z,2.54
2023-03-13T07:40:16.028Z,2.59
2023-03-13T07:46:50.466Z,2.83
2023-03-13T07:49:20.461Z,2.64
2023-03-13T07:51:52.660Z,3.24
2023-03-13T07:54:21.352Z,3.35
2023-03-13T07:56:51.303Z,3.60
2023-03-13T07:59:20.041Z,3.34
2023-03-13T08:01:48.713Z,3.73
2023-03-13T08:04:17.711Z,3.79
2023-03-13T08:06:46.419Z,3.96
2023-03-13T08:09:16.508Z,3.98
2023-03-13T08:15:28.882Z,3.79
2023-03-13T08:18:01.460Z,3.79
2023-03-13T08:20:30.435Z,3.62
2023-03-13T08:22:59.191Z,3.39
2023-03-13T08:25:27.914Z,3.74
2023-03-13T08:27:56.738Z,4.30
2023-03-13T08:30:25.479Z,4.25
2023-03-13T08:32:54.398Z,4.21
2023-03-13T08:35:23.246Z,4.02
2023-03-13T08:37:53.019Z,4.42
2023-03-13T08:40:21.649Z,4.35
2023-03-13T08:42:53.643Z,4.35
2023-03-13T08:48:31.975Z,4.99
2023-03-13T08:51:06.344Z,5.36
2023-03-13T08:53:36.417Z,5.41
2023-03-13T08:56:05.623Z,5.44
2023-03-13T08:58:36.211Z,5.42
2023-03-13T09:01:07.793Z,5.44
2023-03-13T09:07:53.968Z,5.38
2023-03-13T09:10:25.224Z,5.66
2023-03-13T09:12:53.709Z,5.26
2023-03-13T09:15:22.394Z,5.51
2023-03-13T09:17:51.062Z,5.70
2023-03-13T09:20:19.932Z,5.69
2023-03-13T09:22:48.681Z,5.83
2023-03-13T09:25:19.179Z,6.00
2023-03-13T09:27:47.721Z,6.37
2023-03-13T09:30:16.496Z,6.27
2023-03-13T09:32:45.417Z,6.27
2023-03-13T09:35:22.134Z,6.48
2023-03-13T09:37:50.807Z,6.28
2023-03-13T09:40:22.154Z,6.24
2023-03-13T09:42:55.550Z,6.31
2023-03-13T09:45:40.721Z,6.63
2023-03-13T09:48:35.118Z,6.93
2023-03-13T09:51:06.746Z,6.96
2023-03-13T09:54:05.037Z,6.76
2023-03-13T09:56:49.092Z,7.19
2023-03-13T09:59:35.885Z,7.37
2023-03-13T10:02:07.540Z,7.68
2023-03-13T10:04:41.640Z,7.34
2023-03-13T10:07:12.598Z,7.16
2023-03-13T10:09:41.389Z,7.34
2023-03-13T10:12:27.778Z,7.50
2023-03-13T10:15:14.548Z,7.58
2023-03-13T10:17:45.291Z,7.56
2023-03-13T10:20:25.508Z,7.81
2023-03-13T10:23:06.040Z,7.40
2023-03-13T10:25:40.021Z,8.13
2023-03-13T10:34:57.269Z,8.43
2023-03-13T10:37:28.986Z,8.73
2023-03-13T10:40:17.054Z,8.98
2023-03-13T10:46:49.446Z,9.64
2023-03-13T10:49:23.595Z,9.38
2023-03-13T10:51:57.693Z,9.53
2023-03-13T10:54:38.160Z,9.27
2023-03-13T10:57:32.730Z,9.26
2023-03-13T11:00:04.971Z,9.38
2023-03-13T11:02:40.951Z,9.14
2023-03-13T11:05:36.751Z,9.13
2023-03-13T11:08:24.007Z,9.17
2023-03-13T11:10:55.809Z,9.25
2023-03-13T11:13:39.382Z,9.42
2023-03-13T11:16:11.188Z,9.63
2023-03-13T11:18:48.635Z,9.84
2023-03-13T11:21:28.478Z,10.17
2023-03-13T11:24:01.812Z,10.10
2023-03-13T11:26:44.681Z,9.82
2023-03-13T11:29:15.840Z,9.84
2023-03-13T11:31:47.663Z,9.82
2023-03-13T11:34:27.569Z,9.64
2023-03-13T11:37:16.384Z,9.99
2023-03-13T11:40:23.313Z,9.92
2023-03-13T11:43:21.798Z,9.98
2023-03-13T11:45:51.274Z,10.12
2023-03-13T11:48:37.490Z,10.30
2023-03-13T11:51:17.627Z,10.24
2023-03-13T11:54:22.024Z,10.18
2023-03-13T11:56:53.679Z,9.76
2023-03-13T11:59:46.400Z,9.78
2023-03-13T12:02:20.154Z,9.71
2023-03-13T12:04:52.140Z,9.56
2023-03-13T12:07:29.955Z,9.73
2023-03-13T12:10:20.116Z,9.65
2023-03-13T12:13:10.105Z,9.72
2023-03-13T12:15:41.776Z,9.27
2023-03-13T12:18:21.703Z,9.42
2023-03-13T12:21:09.705Z,9.59
2023-03-13T12:23:44.364Z,9.49
2023-03-13T12:26:19.201Z,9.60
2023-03-13T12:29:02.940Z,9.58
2023-03-13T12:31:43.584Z,9.72
2023-03-13T12:51:01.160Z,9.91
2023-03-13T13:07:20.413Z,10.54
2023-03-13T14:36:26.758Z,10.51
2023-03-13T14:46:20.403Z,10.06
2023-03-13T14:53:13.296Z,10.31
2023-03-13T15:05:08.003Z,10.30
2023-03-13T15:07:44.618Z,10.09
2023-03-13T15:10:37.015Z,10.21
2023-03-13T15:13:32.857Z,10.26
2023-03-13T15:16:04.273Z,10.16
2023-03-13T15:18:35.258Z,10.05
2023-03-13T15:21:17.124Z,10.02
2023-03-13T15:23:57.769Z,10.00
2023-03-13T15:26:32.296Z,10.18
2023-03-13T15:29:00.870Z,10.09
2023-03-13T15:34:10.736Z,10.23
2023-03-13T15:36:40.837Z,10.47
2023-03-13T15:39:27.080Z,10.59
2023-03-13T15:41:56.193Z,10.63
2023-03-13T15:44:24.703Z,10.94
2023-03-13T15:50:40.394Z,11.38
2023-03-13T15:53:06.477Z,11.32
2023-03-13T15:55:44.033Z,11.28
2023-03-13T15:58:14.508Z,11.17
2023-03-13T16:00:44.574Z,10.54
2023-03-13T16:03:24.986Z,10.23
2023-03-13T16:05:56.583Z,10.02
2023-03-13T16:11:46.393Z,9.73
2023-03-13T16:14:15.147Z,9.42
2023-03-13T16:16:43.919Z,9.24
2023-03-13T16:19:13.966Z,9.11
2023-03-13T16:21:44.277Z,8.93
2023-03-13T16:24:12.931Z,8.81
2023-03-13T16:26:41.521Z,8.71
2023-03-13T16:29:12.880Z,8.59
2023-03-13T16:31:44.933Z,8.49
2023-03-13T16:34:13.502Z,8.39
2023-03-13T16:36:42.200Z,8.26
2023-03-13T16:39:18.014Z,8.10
2023-03-13T16:41:49.757Z,7.98
2023-03-13T16:44:28.402Z,7.85
2023-03-13T16:47:05.576Z,7.64
2023-03-13T16:49:50.252Z,7.45
2023-03-13T16:52:19.532Z,7.36
2023-03-13T16:58:16.067Z,6.93
2023-03-13T17:01:02.696Z,6.78
2023-03-13T17:03:18.719Z,6.69
2023-03-13T17:05:47.700Z,6.87
2023-03-13T17:08:16.574Z,6.68
2023-03-13T17:10:45.306Z,6.52
2023-03-13T17:13:14.145Z,6.43
2023-03-13T17:15:43.014Z,6.36
2023-03-13T17:18:11.908Z,6.37
2023-03-13T17:20:42.449Z,6.27
2023-03-13T17:23:11.707Z,6.16
2023-03-13T17:25:43.597Z,6.12
2023-03-13T17:28:16.289Z,6.17
2023-03-13T17:30:45.032Z,6.23
2023-03-13T17:33:15.318Z,6.10
2023-03-13T17:36:11.834Z,5.87
2023-03-13T17:38:37.797Z,5.88
2023-03-13T17:41:06.643Z,5.79
2023-03-13T17:43:40.053Z,5.73
2023-03-13T17:46:23.437Z,5.84
2023-03-13T17:48:54.498Z,5.86
2023-03-13T17:51:32.121Z,5.83
2023-03-13T17:54:01.210Z,5.79
2023-03-13T17:56:34.501Z,5.79
2023-03-13T17:59:04.430Z,5.61
2023-03-13T18:01:35.509Z,5.46
2023-03-13T18:04:04.638Z,5.43
2023-03-13T18:06:48.934Z,5.45
2023-03-13T18:09:20.906Z,5.50
2023-03-13T18:11:50.483Z,5.30
2023-03-13T18:14:21.679Z,5.17
2023-03-13T18:16:51.042Z,5.15
2023-03-13T18:19:27.140Z,5.22
2023-03-13T18:21:56.959Z,5.12
2023-03-13T18:24:27.095Z,5.29
2023-03-13T18:27:07.446Z,5.31
2023-03-13T18:29:55.652Z,5.15
2023-03-13T18:32:24.494Z,5.20
2023-03-13T18:34:53.575Z,5.26
2023-03-13T18:37:33.996Z,5.30
2023-03-13T18:40:04.749Z,5.27
2023-03-13T18:42:40.290Z,5.20
2023-03-13T18:45:09.955Z,5.00
2023-03-13T18:47:38.543Z,5.03
2023-03-13T18:50:13.110Z,5.01
2023-03-13T18:52:46.202Z,5.06
2023-03-13T18:55:51.153Z,4.98
2023-03-13T18:59:09.121Z,4.79
2023-03-13T19:01:24.388Z,4.82
2023-03-13T19:03:53.714Z,4.99
2023-03-13T19:06:34.912Z,4.90
2023-03-13T19:09:03.741Z,4.95
2023-03-13T19:11:33.529Z,4.95
2023-03-13T19:14:02.227Z,4.96
2023-03-13T19:16:35.200Z,5.03
2023-03-13T19:19:05.776Z,5.02
2023-03-13T19:21:34.722Z,4.97
2023-03-13T19:24:03.514Z,4.94
2023-03-13T19:26:35.196Z,4.81
2023-03-13T19:29:05.111Z,4.82
2023-03-13T19:34:24.448Z,4.68
2023-03-13T19:36:53.572Z,4.56
2023-03-13T19:39:25.176Z,4.47
2023-03-13T19:41:54.550Z,4.60
2023-03-13T19:44:24.207Z,4.48
2023-03-13T19:46:55.932Z,4.51
2023-03-13T19:49:24.773Z,4.59
2023-03-13T19:51:53.407Z,4.57
2023-03-13T19:54:25.258Z,4.56
2023-03-13T19:56:53.917Z,4.55
2023-03-13T19:59:26.472Z,4.57
2023-03-13T20:02:00.089Z,4.50
2023-03-13T20:04:28.800Z,4.47
2023-03-13T20:06:57.433Z,4.43
2023-03-13T20:09:26.152Z,4.44
2023-03-13T20:11:54.704Z,4.37
2023-03-13T20:14:23.327Z,4.32
2023-03-13T20:16:51.881Z,4.37
2023-03-13T20:19:22.316Z,4.37
2023-03-13T20:21:52.634Z,4.38
2023-03-13T20:24:22.892Z,4.41
2023-03-13T20:26:55.070Z,4.35
2023-03-13T20:29:34.726Z,4.40
2023-03-13T20:32:04.971Z,4.30
2023-03-13T20:34:33.701Z,4.33
2023-03-13T20:37:04.074Z,4.22
2023-03-13T20:39:33.052Z,4.30
2023-03-13T20:42:03.205Z,4.22
2023-03-13T20:44:32.038Z,4.13
2023-03-13T20:47:00.890Z,4.03
2023-03-13T20:49:29.776Z,4.08
2023-03-13T20:51:58.489Z,4.12
2023-03-13T20:54:27.144Z,4.09
2023-03-13T20:56:55.809Z,4.03
2023-03-13T20:59:24.478Z,4.04
2023-03-13T21:02:26.363Z,3.83
2023-03-13T21:04:55.178Z,4.00
2023-03-13T21:07:23.861Z,3.99
2023-03-13T21:09:54.001Z,3.83
2023-03-13T21:12:22.509Z,3.89
2023-03-13T21:14:52.691Z,3.90
2023-03-13T21:17:21.452Z,3.80
2023-03-13T21:19:50.279Z,3.77
2023-03-13T21:22:19.375Z,3.68
2023-03-13T21:24:48.922Z,3.61
2023-03-13T21:27:19.668Z,3.56
2023-03-13T21:29:50.250Z,3.47
2023-03-13T21:32:19.828Z,3.49
2023-03-13T21:34:51.676Z,3.53
2023-03-13T21:37:20.447Z,3.47
2023-03-13T21:39:54.136Z,3.38
2023-03-13T21:42:23.246Z,3.40
2023-03-13T21:44:53.515Z,3.39
2023-03-13T21:47:25.314Z,3.39
2023-03-13T21:50:04.527Z,3.32
2023-03-13T21:52:38.045Z,3.24
2023-03-13T21:55:08.088Z,3.16
2023-03-13T22:01:04.314Z,3.14
2023-03-13T22:03:49.973Z,3.11
2023-03-13T22:06:25.339Z,3.17
2023-03-13T22:08:54.023Z,3.16
2023-03-13T22:11:26.102Z,3.07
2023-03-13T22:13:58.246Z,3.07
2023-03-13T22:16:30.439Z,3.08
2023-03-13T22:22:41.110Z,3.14
2023-03-13T22:25:10.394Z,3.09
2023-03-13T22:27:39.274Z,3.04
2023-03-13T22:30:08.927Z,3.09
2023-03-13T22:32:38.043Z,3.22
2023-03-13T22:35:10.263Z,3.13
2023-03-13T22:37:39.167Z,3.13
2023-03-13T22:40:09.729Z,3.12
2023-03-13T22:42:38.429Z,3.08
2023-03-13T22:45:08.057Z,3.18
2023-03-13T22:47:39.768Z,3.20
2023-03-13T22:50:11.200Z,3.14
2023-03-13T22:52:44.506Z,3.09
2023-03-13T22:55:13.677Z,3.08
2023-03-13T22:57:47.848Z,3.03
2023-03-13T23:00:18.509Z,3.03
2023-03-13T23:02:47.588Z,2.83
2023-03-13T23:05:20.568Z,2.83
2023-03-13T23:07:53.232Z,2.85
2023-03-13T23:10:23.635Z,2.83
2023-03-13T23:12:52.502Z,2.88
2023-03-13T23:15:24.590Z,2.88
2023-03-13T23:17:53.593Z,2.88
2023-03-13T23:20:26.296Z,2.84
2023-03-13T23:22:55.298Z,2.95
2023-03-13T23:25:23.997Z,2.94
2023-03-13T23:27:53.041Z,2.86
2023-03-13T23:30:21.781Z,2.86
2023-03-13T23:32:50.527Z,2.86
2023-03-13T23:35:19.248Z,2.86
2023-03-13T23:37:55.790Z,2.77
2023-03-13T23:40:28.386Z,2.71
2023-03-13T23:42:57.019Z,2.73
2023-03-13T23:45:27.420Z,2.62
2023-03-13T23:47:56.513Z,2.68
2023-03-13T23:50:25.413Z,2.65
2023-03-13T23:52:55.770Z,2.64
2023-03-13T23:55:25.786Z,2.60
2023-03-13T23:57:54.428Z,2.60
